Time;durP1;ratioP1;P1;durP2;ratioP2;P2;SDS_P1;SDS_P2;PMS_P1;PMS_P2;Temp;Humidity;BMP_temperature;BMP_pressure;BME280_temperature;BME280_humidity;BME280_pressure;Samples;Min_cycle;Max_cycle;Signal;HPM_P1;HPM_P2
2023/08/08 00:00:15;;;;;;;0.70;0.40;;;;;;;;;;6243333;28;20334;-88
2023/08/08 00:03:16;;;;;;;2.00;0.50;;;;;;;;;;6243649;28;20056;-86
2023/08/08 00:06:19;;;;;;;0.50;0.40;;;;;;;;;;6243861;28;20046;-89
2023/08/08 00:09:20;;;;;;;1.02;0.57;;;;;;;;;;6242132;28;20053;-86
2023/08/08 00:12:22;;;;;;;0.75;0.40;;;;;;;;;;6246063;28;20517;-87
2023/08/08 00:15:23;;;;;;;1.20;0.65;;;;;;;;;;6242326;28;20053;-88
2023/08/08 00:18:25;;;;;;;1.30;0.50;;;;;;;;;;6243359;28;20065;-89
2023/08/08 00:21:28;;;;;;;1.02;0.38;;;;;;;;;;6241370;28;20053;-83
2023/08/08 00:24:29;;;;;;;2.30;0.60;;;;;;;;;;6243684;28;20085;-88
2023/08/08 00:27:30;;;;;;;3.08;0.68;;;;;;;;;;6243338;28;20119;-84
2023/08/08 00:30:32;;;;;;;1.00;0.65;;;;;;;;;;6241120;28;20401;-89
2023/08/08 00:33:33;;;;;;;0.80;0.40;;;;;;;;;;6244031;28;20037;-82
2023/08/08 00:36:36;;;;;;;0.90;0.47;;;;;;;;;;6245701;28;20067;-89
2023/08/08 00:39:39;;;;;;;1.13;0.40;;;;;;;;;;6241110;28;20049;-89
2023/08/08 00:42:40;;;;;;;0.82;0.50;;;;;;;;;;6245583;28;20056;-87
2023/08/08 00:45:43;;;;;;;1.55;0.50;;;;;;;;;;6241630;28;20088;-89
2023/08/08 00:48:44;;;;;;;2.27;0.40;;;;;;;;;;6242591;28;20112;-89
2023/08/08 00:51:47;;;;;;;0.93;0.40;;;;;;;;;;6243121;28;20237;-89
2023/08/08 00:54:49;;;;;;;1.40;0.50;;;;;;;;;;6240257;28;20068;-89
2023/08/08 00:57:50;;;;;;;0.98;0.52;;;;;;;;;;6241833;28;20041;-89
2023/08/08 01:00:54;;;;;;;3.88;0.73;;;;;;;;;;6244014;28;20477;-89
2023/08/08 01:03:57;;;;;;;2.45;0.63;;;;;;;;;;6242576;28;20117;-90
2023/08/08 01:07:03;;;;;;;0.90;0.45;;;;;;;;;;6242621;28;20041;-82
2023/08/08 01:10:07;;;;;;;2.03;0.47;;;;;;;;;;6239951;28;20054;-88
2023/08/08 01:13:10;;;;;;;0.90;0.50;;;;;;;;;;6242276;28;20042;-90
2023/08/08 01:16:11;;;;;;;1.25;0.60;;;;;;;;;;6243703;28;20080;-88
2023/08/08 01:19:16;;;;;;;0.70;0.50;;;;;;;;;;6240510;28;20057;-89
2023/08/08 01:22:25;;;;;;;0.65;0.40;;;;;;;;;;6241238;28;20049;-88
2023/08/08 01:25:29;;;;;;;1.80;0.65;;;;;;;;;;6242279;28;20054;-87
2023/08/08 01:28:30;;;;;;;0.85;0.55;;;;;;;;;;6242435;28;20054;-90
2023/08/08 01:31:31;;;;;;;1.80;0.50;;;;;;;;;;6240514;28;20639;-90
2023/08/08 01:34:33;;;;;;;0.68;0.40;;;;;;;;;;6240048;28;20057;-90
2023/08/08 01:37:37;;;;;;;0.98;0.50;;;;;;;;;;6240456;28;20037;-84
2023/08/08 01:40:41;;;;;;;0.70;0.40;;;;;;;;;;6241072;28;20120;-83
2023/08/08 01:43:42;;;;;;;0.60;0.50;;;;;;;;;;6241009;28;20045;-86
2023/08/08 01:46:44;;;;;;;1.50;0.70;;;;;;;;;;6242047;28;20060;-88
2023/08/08 01:49:45;;;;;;;0.80;0.50;;;;;;;;;;6240039;28;20045;-89
2023/08/08 01:52:47;;;;;;;0.90;0.60;;;;;;;;;;6242280;28;20062;-86
2023/08/08 01:55:49;;;;;;;2.13;0.60;;;;;;;;;;6241277;28;20065;-90
2023/08/08 01:58:51;;;;;;;1.33;0.50;;;;;;;;;;6241744;28;20050;-90
2023/08/08 02:01:52;;;;;;;1.95;0.45;;;;;;;;;;6241993;28;20060;-89
2023/08/08 02:04:54;;;;;;;1.08;0.50;;;;;;;;;;6241317;28;20058;-89
2023/08/08 02:07:55;;;;;;;1.17;0.60;;;;;;;;;;6240687;28;20046;-89
2023/08/08 02:10:58;;;;;;;1.40;0.50;;;;;;;;;;6239227;28;20060;-90
2023/08/08 02:14:00;;;;;;;1.13;0.60;;;;;;;;;;6242918;28;20063;-88
2023/08/08 02:17:01;;;;;;;2.88;0.70;;;;;;;;;;6241875;28;20057;-88
2023/08/08 02:20:03;;;;;;;2.70;0.47;;;;;;;;;;6239159;28;20637;-89
2023/08/08 02:23:04;;;;;;;2.65;0.70;;;;;;;;;;6239884;28;20056;-87
2023/08/08 02:26:07;;;;;;;2.53;0.60;;;;;;;;;;6238949;28;20054;-89
2023/08/08 02:29:09;;;;;;;1.75;0.60;;;;;;;;;;6242503;28;20053;-86
2023/08/08 02:32:10;;;;;;;1.67;0.50;;;;;;;;;;6241817;28;20056;-89
2023/08/08 02:35:12;;;;;;;3.10;0.57;;;;;;;;;;6236020;28;20062;-89
2023/08/08 02:38:14;;;;;;;1.50;0.40;;;;;;;;;;6239648;28;20253;-90
2023/08/08 02:41:17;;;;;;;2.30;0.60;;;;;;;;;;6238097;28;20354;-88
2023/08/08 02:44:19;;;;;;;0.93;0.40;;;;;;;;;;6239992;28;20058;-89
2023/08/08 02:47:21;;;;;;;1.45;0.40;;;;;;;;;;6241522;28;20442;-87
2023/08/08 02:50:22;;;;;;;1.58;0.50;;;;;;;;;;6239711;28;20288;-90
2023/08/08 02:53:23;;;;;;;2.53;0.50;;;;;;;;;;6237341;28;20060;-85
2023/08/08 02:56:26;;;;;;;1.80;0.60;;;;;;;;;;6238721;28;20057;-90
2023/08/08 02:59:28;;;;;;;1.67;0.70;;;;;;;;;;6238080;28;20292;-87
2023/08/08 03:02:30;;;;;;;2.80;0.73;;;;;;;;;;6240942;28;20934;-89
2023/08/08 03:05:31;;;;;;;1.40;0.70;;;;;;;;;;6237529;28;20715;-90
2023/08/08 03:08:33;;;;;;;1.52;0.60;;;;;;;;;;6239083;28;20301;-88
2023/08/08 03:11:37;;;;;;;2.17;0.60;;;;;;;;;;6241190;28;20052;-90
2023/08/08 03:14:38;;;;;;;1.33;0.70;;;;;;;;;;6237916;28;20341;-90
2023/08/08 03:17:40;;;;;;;1.77;0.70;;;;;;;;;;6240887;28;20092;-90
2023/08/08 03:20:41;;;;;;;1.95;0.70;;;;;;;;;;6241107;28;20050;-89
2023/08/08 03:23:43;;;;;;;1.83;0.60;;;;;;;;;;6237106;28;20065;-90
2023/08/08 03:26:45;;;;;;;0.90;0.60;;;;;;;;;;6235994;28;20058;-88
2023/08/08 03:29:47;;;;;;;0.80;0.60;;;;;;;;;;6237310;28;20053;-89
2023/08/08 03:32:48;;;;;;;1.85;0.70;;;;;;;;;;6240595;28;20061;-89
2023/08/08 03:35:50;;;;;;;1.02;0.60;;;;;;;;;;6238892;28;20053;-89
2023/08/08 03:38:51;;;;;;;1.80;0.73;;;;;;;;;;6238804;28;20124;-89
2023/08/08 03:41:54;;;;;;;2.15;0.77;;;;;;;;;;6238215;28;20045;-89
2023/08/08 03:44:55;;;;;;;3.20;0.90;;;;;;;;;;6236812;28;20338;-90
2023/08/08 03:47:57;;;;;;;2.85;0.68;;;;;;;;;;6238736;28;20471;-89
2023/08/08 03:50:58;;;;;;;2.47;0.60;;;;;;;;;;6238058;28;20592;-90
2023/08/08 03:54:00;;;;;;;1.83;0.68;;;;;;;;;;6239881;28;20065;-89
2023/08/08 03:57:03;;;;;;;2.28;0.63;;;;;;;;;;6237958;28;20074;-86
2023/08/08 04:00:08;;;;;;;1.27;0.75;;;;;;;;;;6240438;28;20071;-90
2023/08/08 04:06:47;;;;;;;1.40;0.93;;;;;;;;;;6184902;28;20026;-86
2023/08/08 04:09:48;;;;;;;1.27;0.60;;;;;;;;;;6183701;28;20110;-89
2023/08/08 04:12:51;;;;;;;2.25;0.70;;;;;;;;;;6187443;28;20058;-91
2023/08/08 04:15:53;;;;;;;1.00;0.60;;;;;;;;;;6185967;28;20117;-90
2023/08/08 04:18:54;;;;;;;2.17;0.75;;;;;;;;;;6182858;28;20050;-86
2023/08/08 04:21:56;;;;;;;4.07;0.60;;;;;;;;;;6188786;28;20101;-90
2023/08/08 04:24:57;;;;;;;2.17;0.85;;;;;;;;;;6185851;28;20593;-90
2023/08/08 04:28:09;;;;;;;1.95;0.52;;;;;;;;;;6187341;28;20051;-91
2023/08/08 04:31:11;;;;;;;1.95;0.60;;;;;;;;;;6227423;28;20046;-90
2023/08/08 04:34:19;;;;;;;1.02;0.40;;;;;;;;;;6236643;28;20241;-86
2023/08/08 04:37:20;;;;;;;0.93;0.60;;;;;;;;;;6238979;28;20063;-91
2023/08/08 04:47:51;;;;;;;1.27;0.60;;;;;;;;;;6079219;29;20058;-88
2023/08/08 04:50:53;;;;;;;1.30;0.90;;;;;;;;;;6096888;29;20126;-86
2023/08/08 04:57:40;;;;;;;1.45;0.50;;;;;;;;;;5998604;29;20038;-89
2023/08/08 05:00:43;;;;;;;0.75;0.43;;;;;;;;;;5992027;29;20313;-82
2023/08/08 05:03:45;;;;;;;0.93;0.40;;;;;;;;;;5992353;29;20061;-91
2023/08/08 05:06:46;;;;;;;1.70;0.80;;;;;;;;;;5991932;29;20548;-91
2023/08/08 05:09:47;;;;;;;1.95;0.55;;;;;;;;;;5991784;29;20111;-90
2023/08/08 05:12:49;;;;;;;1.45;0.50;;;;;;;;;;6002801;29;20057;-89
2023/08/08 05:15:52;;;;;;;3.28;0.80;;;;;;;;;;6096733;28;20068;-90
2023/08/08 05:18:53;;;;;;;1.38;0.60;;;;;;;;;;6117621;28;20052;-82
2023/08/08 05:25:17;;;;;;;1.08;0.52;;;;;;;;;;6041095;29;20235;-89
2023/08/08 05:28:18;;;;;;;2.58;0.52;;;;;;;;;;6088040;29;20060;-90
2023/08/08 05:34:40;;;;;;;3.65;0.70;;;;;;;;;;6202658;28;20053;-90
2023/08/08 05:37:41;;;;;;;2.22;0.73;;;;;;;;;;6239768;28;20049;-89
2023/08/08 05:41:04;;;;;;;1.55;0.60;;;;;;;;;;6241911;28;20053;-90
2023/08/08 05:44:06;;;;;;;1.15;0.60;;;;;;;;;;6240354;28;20057;-87
2023/08/08 05:50:30;;;;;;;2.28;0.40;;;;;;;;;;6243109;28;20060;-90
2023/08/08 05:53:32;;;;;;;2.40;0.50;;;;;;;;;;6242167;28;20049;-87
2023/08/08 05:56:37;;;;;;;2.50;0.70;;;;;;;;;;6242112;28;20108;-90
2023/08/08 06:00:05;;;;;;;3.30;0.70;;;;;;;;;;6242605;28;20302;-90
2023/08/08 06:03:33;;;;;;;4.85;1.15;;;;;;;;;;6239418;28;20076;-90
2023/08/08 06:06:36;;;;;;;0.57;0.43;;;;;;;;;;6240257;28;20105;-88
2023/08/08 06:09:38;;;;;;;2.10;0.60;;;;;;;;;;6239186;28;20058;-89
2023/08/08 06:12:39;;;;;;;3.22;0.65;;;;;;;;;;6240961;28;20473;-91
2023/08/08 06:15:41;;;;;;;0.98;0.43;;;;;;;;;;6240534;28;20073;-90
2023/08/08 06:18:42;;;;;;;3.13;0.70;;;;;;;;;;6241756;28;20693;-88
2023/08/08 06:21:56;;;;;;;;;;;;;;;;;;;;;
2023/08/08 06:25:03;;;;;;;;;;;;;;;;;;6236296;28;20160;-89
2023/08/08 06:32:24;;;;;;;1.67;0.52;;;;;;;;;;6241948;28;20033;-88
2023/08/08 06:47:02;;;;;;;1.63;0.70;;;;;;;;;;6238813;28;20034;-85
2023/08/08 06:50:42;;;;;;;3.72;0.60;;;;;;;;;;6241654;28;20046;-90
2023/08/08 06:53:52;;;;;;;2.35;1.02;;;;;;;;;;6239500;28;20124;-87
2023/08/08 06:56:53;;;;;;;4.15;0.68;;;;;;;;;;6238146;28;20054;-85
2023/08/08 06:59:55;;;;;;;2.42;0.88;;;;;;;;;;6238402;28;20053;-82
2023/08/08 07:02:59;;;;;;;2.35;0.82;;;;;;;;;;6241395;28;20053;-90
2023/08/08 07:06:00;;;;;;;1.70;1.08;;;;;;;;;;6240240;28;20050;-87
2023/08/08 07:09:03;;;;;;;2.35;1.13;;;;;;;;;;6236540;28;20203;-90
2023/08/08 07:12:05;;;;;;;1.40;0.85;;;;;;;;;;6238213;28;20049;-89
2023/08/08 07:15:08;;;;;;;1.92;1.05;;;;;;;;;;6236181;28;20088;-90
2023/08/08 07:18:09;;;;;;;2.30;1.00;;;;;;;;;;6239014;28;20413;-89
2023/08/08 07:21:11;;;;;;;1.65;1.02;;;;;;;;;;6237722;28;20479;-88
2023/08/08 07:24:14;;;;;;;8.85;1.15;;;;;;;;;;6241539;28;20064;-89
2023/08/08 07:27:15;;;;;;;1.80;1.20;;;;;;;;;;6238547;28;20113;-87
2023/08/08 07:30:17;;;;;;;2.42;0.90;;;;;;;;;;6239354;28;20057;-87
2023/08/08 07:33:18;;;;;;;4.03;1.00;;;;;;;;;;6240339;28;20105;-84
2023/08/08 07:36:20;;;;;;;6.38;1.20;;;;;;;;;;6238039;28;20057;-89
2023/08/08 07:39:23;;;;;;;4.20;1.23;;;;;;;;;;6236588;28;20087;-90
2023/08/08 07:42:24;;;;;;;2.58;1.25;;;;;;;;;;6237759;28;20286;-89
2023/08/08 07:45:26;;;;;;;1.20;0.80;;;;;;;;;;6239805;28;20061;-89
2023/08/08 07:48:27;;;;;;;5.70;1.30;;;;;;;;;;6238831;28;20356;-89
2023/08/08 07:51:29;;;;;;;2.15;0.75;;;;;;;;;;6239865;28;20358;-89
2023/08/08 07:54:31;;;;;;;4.28;1.50;;;;;;;;;;6239171;28;20050;-88
2023/08/08 07:57:34;;;;;;;1.77;1.27;;;;;;;;;;6235993;28;20054;-89
2023/08/08 08:00:38;;;;;;;1.90;1.17;;;;;;;;;;6237304;28;20054;-89
2023/08/08 08:03:39;;;;;;;1.92;1.10;;;;;;;;;;6236338;28;20053;-87
2023/08/08 08:06:41;;;;;;;3.97;2.10;;;;;;;;;;6237932;28;20065;-90
2023/08/08 08:09:45;;;;;;;3.22;1.27;;;;;;;;;;6238979;28;20313;-86
2023/08/08 08:12:46;;;;;;;2.35;1.30;;;;;;;;;;6244819;28;20062;-87
2023/08/08 08:15:47;;;;;;;4.13;1.13;;;;;;;;;;6240944;28;20049;-89
2023/08/08 08:18:49;;;;;;;3.17;1.90;;;;;;;;;;6244132;28;20049;-89
2023/08/08 08:21:50;;;;;;;4.70;1.17;;;;;;;;;;6244074;28;20342;-89
2023/08/08 08:24:53;;;;;;;3.65;1.20;;;;;;;;;;6242089;28;20057;-89
2023/08/08 08:27:55;;;;;;;3.92;1.50;;;;;;;;;;6241943;28;20057;-88
2023/08/08 08:30:56;;;;;;;3.55;1.33;;;;;;;;;;6245188;28;20050;-86
2023/08/08 08:33:57;;;;;;;3.80;1.77;;;;;;;;;;6243776;28;20064;-89
2023/08/08 08:36:59;;;;;;;2.72;1.27;;;;;;;;;;6243978;28;20057;-87
2023/08/08 08:40:04;;;;;;;2.72;1.10;;;;;;;;;;6255370;28;20061;-86
2023/08/08 08:43:06;;;;;;;3.95;1.30;;;;;;;;;;6269111;28;20131;-88
2023/08/08 08:46:09;;;;;;;2.95;0.95;;;;;;;;;;6267828;28;20060;-88
2023/08/08 08:49:11;;;;;;;3.83;1.40;;;;;;;;;;6267735;28;20108;-87
2023/08/08 08:52:13;;;;;;;3.65;1.40;;;;;;;;;;6267286;28;20322;-87
2023/08/08 08:55:17;;;;;;;1.73;1.10;;;;;;;;;;6264728;28;20064;-84
2023/08/08 08:58:18;;;;;;;2.40;1.20;;;;;;;;;;6267052;28;20049;-88
2023/08/08 09:01:21;;;;;;;1.40;0.90;;;;;;;;;;6265100;28;20379;-90
2023/08/08 09:04:22;;;;;;;2.43;0.97;;;;;;;;;;6265862;28;20104;-88
2023/08/08 09:07:25;;;;;;;1.20;0.80;;;;;;;;;;6266304;28;20151;-88
2023/08/08 09:10:31;;;;;;;1.92;1.00;;;;;;;;;;6265793;28;20088;-86
2023/08/08 09:13:38;;;;;;;5.22;1.10;;;;;;;;;;6247032;28;20060;-86
2023/08/08 09:16:45;;;;;;;3.25;0.60;;;;;;;;;;6262472;28;20147;-86
2023/08/08 09:19:47;;;;;;;2.20;0.70;;;;;;;;;;6266379;28;20214;-87
2023/08/08 09:22:50;;;;;;;1.60;0.85;;;;;;;;;;6267014;28;20045;-89
2023/08/08 09:25:53;;;;;;;1.23;0.63;;;;;;;;;;6265911;28;20049;-87
2023/08/08 09:32:10;;;;;;;1.02;0.60;;;;;;;;;;6252874;28;19917;-85
2023/08/08 09:35:46;;;;;;;0.60;0.40;;;;;;;;;;6217147;28;20052;-86
2023/08/08 09:38:47;;;;;;;0.98;0.50;;;;;;;;;;6261525;28;20049;-89
2023/08/08 09:45:10;;;;;;;2.13;0.40;;;;;;;;;;6265775;28;20041;-87
2023/08/08 09:48:11;;;;;;;0.77;0.50;;;;;;;;;;6267987;28;20103;-85
2023/08/08 09:51:13;;;;;;;0.75;0.40;;;;;;;;;;6265237;28;20052;-84
2023/08/08 09:54:14;;;;;;;0.45;0.40;;;;;;;;;;6262878;28;20052;-84
2023/08/08 09:57:17;;;;;;;0.70;0.43;;;;;;;;;;6266788;28;20057;-85
2023/08/08 10:00:20;;;;;;;1.15;0.60;;;;;;;;;;6265767;28;20080;-86
2023/08/08 10:03:22;;;;;;;1.98;0.50;;;;;;;;;;6264055;28;20052;-85
2023/08/08 10:06:23;;;;;;;0.88;0.57;;;;;;;;;;6266373;28;20067;-85
2023/08/08 10:09:25;;;;;;;0.95;0.50;;;;;;;;;;6263658;28;20049;-84
2023/08/08 10:12:28;;;;;;;2.25;0.70;;;;;;;;;;6265341;28;20056;-85
2023/08/08 10:15:30;;;;;;;1.70;0.70;;;;;;;;;;6262673;28;20049;-85
2023/08/08 10:18:31;;;;;;;1.27;0.70;;;;;;;;;;6265644;28;20049;-85
2023/08/08 10:21:34;;;;;;;2.20;0.70;;;;;;;;;;6266305;28;20068;-83
2023/08/08 10:24:36;;;;;;;2.38;0.90;;;;;;;;;;6263088;28;20053;-85
2023/08/08 10:27:40;;;;;;;2.13;1.00;;;;;;;;;;6266079;28;20057;-86
2023/08/08 10:30:45;;;;;;;2.72;1.15;;;;;;;;;;6266282;28;20048;-84
2023/08/08 10:33:46;;;;;;;1.92;1.27;;;;;;;;;;6265075;28;20210;-84
2023/08/08 10:36:52;;;;;;;2.00;1.60;;;;;;;;;;6262852;28;20059;-83
2023/08/08 10:39:54;;;;;;;2.50;1.60;;;;;;;;;;6252936;28;20104;-81
2023/08/08 10:42:56;;;;;;;2.00;1.42;;;;;;;;;;6240155;28;20237;-81
2023/08/08 10:45:59;;;;;;;5.07;1.63;;;;;;;;;;6239636;28;20092;-82
2023/08/08 10:49:01;;;;;;;2.88;1.45;;;;;;;;;;6238293;28;20092;-84
2023/08/08 10:52:02;;;;;;;;;;;;;;;;;;6240694;28;20061;-81
2023/08/08 10:55:05;;;;;;;6.18;1.83;;;;;;;;;;6236651;28;19925;-82
2023/08/08 10:58:08;;;;;;;2.78;1.50;;;;;;;;;;6239851;28;20346;-81
2023/08/08 11:01:12;;;;;;;4.10;1.60;;;;;;;;;;6239762;28;20049;-82
2023/08/08 11:04:14;;;;;;;4.32;2.10;;;;;;;;;;6240181;28;20053;-82
2023/08/08 11:07:16;;;;;;;2.80;1.80;;;;;;;;;;6238981;28;20113;-82
2023/08/08 11:10:17;;;;;;;2.30;1.70;;;;;;;;;;6240263;28;20071;-80
2023/08/08 11:13:20;;;;;;;2.88;1.90;;;;;;;;;;6238896;28;20050;-82
2023/08/08 11:16:22;;;;;;;6.07;2.00;;;;;;;;;;6238290;28;20049;-81
2023/08/08 11:19:24;;;;;;;2.28;1.75;;;;;;;;;;6240364;28;20073;-81
2023/08/08 11:22:25;;;;;;;3.10;2.28;;;;;;;;;;6238598;28;20048;-81
2023/08/08 11:25:28;;;;;;;3.08;1.95;;;;;;;;;;6237007;28;20050;-83
2023/08/08 11:28:31;;;;;;;2.80;2.22;;;;;;;;;;6240165;28;20046;-81
2023/08/08 11:31:32;;;;;;;2.33;1.90;;;;;;;;;;6239669;28;20087;-82
2023/08/08 11:34:37;;;;;;;3.92;2.08;;;;;;;;;;6241120;28;20597;-81
2023/08/08 11:37:39;;;;;;;4.18;2.50;;;;;;;;;;6237866;28;20062;-81
2023/08/08 11:40:43;;;;;;;2.60;1.73;;;;;;;;;;6253841;28;20087;-80
2023/08/08 11:43:49;;;;;;;2.55;2.00;;;;;;;;;;6261673;28;20048;-84
2023/08/08 11:46:51;;;;;;;5.32;2.20;;;;;;;;;;6270042;28;20044;-81
2023/08/08 11:49:53;;;;;;;3.00;2.00;;;;;;;;;;6270816;28;20264;-83
2023/08/08 11:52:54;;;;;;;;;;;;;;;;;;6271775;28;20057;-81
2023/08/08 11:55:57;;;;;;;3.00;2.25;;;;;;;;;;6272596;28;19916;-82
2023/08/08 11:59:01;;;;;;;5.97;2.10;;;;;;;;;;6272254;28;20300;-82
2023/08/08 12:02:03;;;;;;;2.85;1.90;;;;;;;;;;6271383;28;20057;-83
2023/08/08 12:05:11;;;;;;;4.97;1.85;;;;;;;;;;6270212;28;20053;-84
2023/08/08 12:08:12;;;;;;;4.60;2.20;;;;;;;;;;6273497;28;20103;-81
2023/08/08 12:11:15;;;;;;;2.40;1.83;;;;;;;;;;6272316;28;20060;-80
2023/08/08 12:14:19;;;;;;;4.38;1.67;;;;;;;;;;6270088;28;20059;-81
2023/08/08 12:17:24;;;;;;;2.80;1.98;;;;;;;;;;6272312;28;20056;-80
2023/08/08 12:20:28;;;;;;;2.70;2.10;;;;;;;;;;6271201;28;20063;-83
2023/08/08 12:23:31;;;;;;;2.65;1.88;;;;;;;;;;6268916;28;20262;-83
2023/08/08 12:26:32;;;;;;;3.70;2.00;;;;;;;;;;6269725;28;20100;-82
2023/08/08 12:29:35;;;;;;;2.45;1.65;;;;;;;;;;6268823;28;20269;-84
2023/08/08 12:32:37;;;;;;;3.30;1.92;;;;;;;;;;6270883;28;20057;-80
2023/08/08 12:35:39;;;;;;;3.97;1.67;;;;;;;;;;6270016;28;20053;-82
2023/08/08 12:38:44;;;;;;;2.75;1.48;;;;;;;;;;6269825;28;20053;-82
2023/08/08 12:41:46;;;;;;;2.92;1.77;;;;;;;;;;6233068;28;20605;-84
2023/08/08 12:45:01;;;;;;;4.03;1.67;;;;;;;;;;6245289;28;20068;-80
2023/08/08 12:48:13;;;;;;;3.42;1.60;;;;;;;;;;6244892;28;20150;-82
2023/08/08 12:51:15;;;;;;;3.55;1.40;;;;;;;;;;6246099;28;20117;-82
2023/08/08 12:54:17;;;;;;;1.92;1.35;;;;;;;;;;6243690;28;20080;-82
2023/08/08 12:57:19;;;;;;;3.83;1.10;;;;;;;;;;6242019;28;20124;-80
2023/08/08 13:00:23;;;;;;;4.93;1.35;;;;;;;;;;6241415;28;20060;-81
2023/08/08 13:03:25;;;;;;;3.15;1.17;;;;;;;;;;6241236;28;20490;-83
2023/08/08 13:06:26;;;;;;;2.67;1.20;;;;;;;;;;6244830;28;20049;-83
2023/08/08 13:09:28;;;;;;;;;;;;;;;;;;6241390;28;20056;-85
2023/08/08 13:12:30;;;;;;;1.55;1.20;;;;;;;;;;6239820;28;19925;-81
2023/08/08 13:15:32;;;;;;;2.47;1.05;;;;;;;;;;6241392;28;20084;-83
2023/08/08 13:18:39;;;;;;;2.22;1.08;;;;;;;;;;6242434;28;20329;-82
2023/08/08 13:21:41;;;;;;;2.67;1.00;;;;;;;;;;6239849;28;20100;-84
2023/08/08 13:24:42;;;;;;;2.95;1.02;;;;;;;;;;6240430;28;20054;-83
2023/08/08 13:27:44;;;;;;;1.80;0.70;;;;;;;;;;6239485;28;20360;-84
2023/08/08 13:30:47;;;;;;;3.05;0.90;;;;;;;;;;6239384;28;20281;-83
2023/08/08 13:33:58;;;;;;;1.88;0.93;;;;;;;;;;6242312;28;20091;-83
2023/08/08 13:36:59;;;;;;;1.88;1.20;;;;;;;;;;6240143;28;20290;-82
2023/08/08 13:40:01;;;;;;;1.15;0.90;;;;;;;;;;6241127;28;20087;-85
2023/08/08 13:43:02;;;;;;;1.73;0.80;;;;;;;;;;6240884;28;20327;-82
2023/08/08 13:46:07;;;;;;;;;;;;;;;;;;6241655;28;20064;-84
2023/08/08 13:49:10;;;;;;;1.58;1.02;;;;;;;;;;6241187;28;19917;-82
2023/08/08 13:52:14;;;;;;;3.25;0.93;;;;;;;;;;6243430;28;20077;-83
2023/08/08 13:55:16;;;;;;;1.25;0.90;;;;;;;;;;6240602;28;20058;-85
2023/08/08 13:58:18;;;;;;;1.60;0.95;;;;;;;;;;6243138;28;20250;-83
2023/08/08 14:01:20;;;;;;;1.45;0.93;;;;;;;;;;6243820;28;20057;-83
2023/08/08 14:04:23;;;;;;;3.35;1.20;;;;;;;;;;6245260;28;20042;-84
2023/08/08 14:07:25;;;;;;;3.90;1.25;;;;;;;;;;6240108;28;20115;-83
2023/08/08 14:10:26;;;;;;;;;;;;;;;;;;6240443;28;20049;-85
2023/08/08 14:13:28;;;;;;;1.88;1.08;;;;;;;;;;6239690;28;19917;-83
2023/08/08 14:16:29;;;;;;;;;;;;;;;;;;6238934;28;20076;-82
2023/08/08 14:19:32;;;;;;;1.57;1.00;;;;;;;;;;6245556;28;19933;-83
2023/08/08 14:22:35;;;;;;;2.55;0.80;;;;;;;;;;6246000;28;20061;-84
2023/08/08 14:25:36;;;;;;;3.10;1.05;;;;;;;;;;6244417;28;20333;-82
2023/08/08 14:28:38;;;;;;;0.80;0.70;;;;;;;;;;6238419;28;20246;-83
2023/08/08 14:31:39;;;;;;;;;;;;;;;;;;6240612;28;20053;-84
2023/08/08 14:34:53;;;;;;;2.75;0.90;;;;;;;;;;6237941;28;19932;-85
2023/08/08 14:37:55;;;;;;;1.15;0.70;;;;;;;;;;6240654;28;20375;-84
2023/08/08 14:40:57;;;;;;;2.60;0.93;;;;;;;;;;6238026;28;20061;-84
2023/08/08 14:43:59;;;;;;;2.63;1.20;;;;;;;;;;6236667;28;20049;-83
2023/08/08 14:47:00;;;;;;;2.20;1.10;;;;;;;;;;6236646;28;20048;-85
2023/08/08 14:50:02;;;;;;;1.35;0.90;;;;;;;;;;6238700;28;20072;-80
2023/08/08 14:53:05;;;;;;;3.75;1.00;;;;;;;;;;6236797;28;20057;-82
2023/08/08 14:56:08;;;;;;;1.67;0.85;;;;;;;;;;6240248;28;20342;-82
2023/08/08 14:59:09;;;;;;;1.58;0.80;;;;;;;;;;6237150;28;20061;-83
2023/08/08 15:02:11;;;;;;;1.45;0.80;;;;;;;;;;6240692;28;20054;-84
2023/08/08 15:05:12;;;;;;;1.70;0.90;;;;;;;;;;6239258;28;20053;-83
2023/08/08 15:08:15;;;;;;;1.45;0.95;;;;;;;;;;6238983;28;20326;-82
2023/08/08 15:11:17;;;;;;;1.77;0.68;;;;;;;;;;6239956;28;20320;-84
2023/08/08 15:14:18;;;;;;;;;;;;;;;;;;6240642;28;20061;-85
2023/08/08 15:17:20;;;;;;;3.73;0.90;;;;;;;;;;6239306;28;19924;-84
2023/08/08 15:20:21;;;;;;;;;;;;;;;;;;6240796;28;20071;-84
2023/08/08 15:23:24;;;;;;;2.20;0.80;;;;;;;;;;6239435;28;20211;-84
2023/08/08 15:26:26;;;;;;;1.73;0.82;;;;;;;;;;6239653;28;20073;-85
2023/08/08 15:29:27;;;;;;;1.10;0.65;;;;;;;;;;6238999;28;20322;-85
2023/08/08 15:32:29;;;;;;;1.77;0.88;;;;;;;;;;6242421;28;20068;-84
2023/08/08 15:35:30;;;;;;;1.58;0.60;;;;;;;;;;6236445;28;20442;-85
2023/08/08 15:38:33;;;;;;;1.30;0.85;;;;;;;;;;6237815;28;20050;-83
2023/08/08 15:41:35;;;;;;;1.65;0.93;;;;;;;;;;6239533;28;20057;-82
2023/08/08 15:44:37;;;;;;;1.50;0.60;;;;;;;;;;6238084;28;20053;-82
2023/08/08 15:47:39;;;;;;;1.83;0.80;;;;;;;;;;6238950;28;20085;-83
2023/08/08 15:50:40;;;;;;;2.75;0.70;;;;;;;;;;6238683;28;20365;-83
2023/08/08 15:53:43;;;;;;;2.88;0.80;;;;;;;;;;6238846;28;20109;-83
2023/08/08 15:56:45;;;;;;;2.33;0.77;;;;;;;;;;6239950;28;20083;-83
2023/08/08 15:59:47;;;;;;;1.83;0.90;;;;;;;;;;6237104;28;20348;-84
2023/08/08 16:02:48;;;;;;;1.10;0.60;;;;;;;;;;6235652;28;20444;-83
2023/08/08 16:05:50;;;;;;;3.78;1.00;;;;;;;;;;6237051;28;20355;-84
2023/08/08 16:08:53;;;;;;;1.85;0.90;;;;;;;;;;6240921;28;20352;-85
2023/08/08 16:11:55;;;;;;;1.63;0.88;;;;;;;;;;6226158;28;20073;-85
2023/08/08 16:14:57;;;;;;;2.38;0.80;;;;;;;;;;6236514;28;20357;-85
2023/08/08 16:17:58;;;;;;;4.93;1.02;;;;;;;;;;6239397;28;20046;-84
2023/08/08 16:21:00;;;;;;;3.35;0.68;;;;;;;;;;6240309;28;20057;-84
2023/08/08 16:24:03;;;;;;;2.78;0.98;;;;;;;;;;6238813;28;20048;-83
2023/08/08 16:27:14;;;;;;;1.50;0.60;;;;;;;;;;6236858;28;20045;-84
2023/08/08 16:30:15;;;;;;;0.82;0.63;;;;;;;;;;6236150;28;20046;-84
2023/08/08 16:33:17;;;;;;;1.70;1.00;;;;;;;;;;6243491;28;20057;-85
2023/08/08 16:36:19;;;;;;;0.98;0.60;;;;;;;;;;6242775;28;20117;-85
2023/08/08 16:39:22;;;;;;;2.03;0.93;;;;;;;;;;6246703;28;20569;-84
2023/08/08 16:42:24;;;;;;;2.10;0.85;;;;;;;;;;6266958;28;20117;-85
2023/08/08 16:45:25;;;;;;;1.77;0.93;;;;;;;;;;6264019;28;20063;-86
2023/08/08 16:51:43;;;;;;;1.67;0.73;;;;;;;;;;6243886;28;20054;-83
2023/08/08 16:54:45;;;;;;;2.50;0.82;;;;;;;;;;6267837;28;20057;-84
2023/08/08 16:57:47;;;;;;;;;;;;;;;;;;6265616;28;20059;-85
2023/08/08 17:04:07;;;;;;;2.95;0.70;;;;;;;;;;6265642;28;20060;-85
2023/08/08 17:07:09;;;;;;;2.33;1.08;;;;;;;;;;6267334;28;20067;-87
2023/08/08 17:10:12;;;;;;;2.85;0.85;;;;;;;;;;6261878;28;20280;-85
2023/08/08 17:13:13;;;;;;;2.53;0.75;;;;;;;;;;6266808;28;20328;-86
2023/08/08 17:16:17;;;;;;;3.00;0.65;;;;;;;;;;6267643;28;20075;-87
2023/08/08 17:19:18;;;;;;;1.85;0.95;;;;;;;;;;6266630;28;20052;-86
2023/08/08 17:22:20;;;;;;;1.65;0.82;;;;;;;;;;6267206;28;20049;-88
2023/08/08 17:25:23;;;;;;;2.25;0.80;;;;;;;;;;6265252;28;20052;-85
2023/08/08 17:28:24;;;;;;;3.30;0.98;;;;;;;;;;6266036;28;20139;-84
2023/08/08 17:31:26;;;;;;;3.30;0.90;;;;;;;;;;6266681;28;20061;-87
2023/08/08 17:34:27;;;;;;;2.53;1.00;;;;;;;;;;6265759;28;20325;-82
2023/08/08 17:37:29;;;;;;;1.25;0.63;;;;;;;;;;6266881;28;20560;-87
2023/08/08 17:40:32;;;;;;;2.35;0.82;;;;;;;;;;6251419;28;20364;-88
2023/08/08 17:43:33;;;;;;;2.85;0.93;;;;;;;;;;6239587;28;20060;-87
2023/08/08 17:46:35;;;;;;;2.92;0.93;;;;;;;;;;6239638;28;20096;-88
2023/08/08 17:49:36;;;;;;;1.98;0.90;;;;;;;;;;6240412;28;20341;-85
2023/08/08 17:52:38;;;;;;;2.42;0.93;;;;;;;;;;6241068;28;20061;-86
2023/08/08 17:56:06;;;;;;;1.80;0.82;;;;;;;;;;6239502;28;20330;-85
2023/08/08 17:59:10;;;;;;;2.67;1.00;;;;;;;;;;6241002;28;20384;-82
2023/08/08 18:02:11;;;;;;;2.05;0.80;;;;;;;;;;6243208;28;20317;-84
2023/08/08 18:05:13;;;;;;;3.92;0.98;;;;;;;;;;6241189;28;20049;-85
2023/08/08 18:08:15;;;;;;;3.22;0.90;;;;;;;;;;6241862;28;20334;-85
2023/08/08 18:11:17;;;;;;;3.97;0.80;;;;;;;;;;6237930;28;20092;-87
2023/08/08 18:14:26;;;;;;;2.42;0.70;;;;;;;;;;6240872;28;20140;-85
2023/08/08 18:17:36;;;;;;;4.03;0.88;;;;;;;;;;6196484;28;20105;-86
2023/08/08 18:20:37;;;;;;;2.10;0.90;;;;;;;;;;6200535;28;20050;-88
2023/08/08 18:23:39;;;;;;;4.53;0.95;;;;;;;;;;6209328;28;20058;-88
2023/08/08 18:26:40;;;;;;;1.58;1.13;;;;;;;;;;6208901;28;20054;-88
2023/08/08 18:29:49;;;;;;;1.58;1.08;;;;;;;;;;6208188;28;20116;-86
2023/08/08 18:32:51;;;;;;;2.40;0.95;;;;;;;;;;6205745;28;20153;-87
2023/08/08 18:35:52;;;;;;;3.00;0.90;;;;;;;;;;6208053;28;20060;-85
2023/08/08 18:38:54;;;;;;;1.67;0.90;;;;;;;;;;6207228;28;20436;-85
2023/08/08 18:41:56;;;;;;;4.70;1.10;;;;;;;;;;6230865;28;20041;-85
2023/08/08 18:44:58;;;;;;;2.85;0.90;;;;;;;;;;6236197;28;20045;-84
2023/08/08 18:48:00;;;;;;;2.58;1.08;;;;;;;;;;6237086;28;20334;-88
2023/08/08 18:51:01;;;;;;;2.47;0.93;;;;;;;;;;6234823;28;20112;-84
2023/08/08 18:54:04;;;;;;;1.30;0.82;;;;;;;;;;6262991;28;20337;-85
2023/08/08 18:57:06;;;;;;;1.40;0.90;;;;;;;;;;6260708;28;20158;-86
2023/08/08 19:00:10;;;;;;;3.15;0.80;;;;;;;;;;6262791;28;20048;-83
2023/08/08 19:03:11;;;;;;;5.47;1.10;;;;;;;;;;6262426;28;20057;-85
2023/08/08 19:06:13;;;;;;;2.90;1.08;;;;;;;;;;6262853;28;20053;-86
2023/08/08 19:09:18;;;;;;;1.23;0.80;;;;;;;;;;6262528;28;20064;-86
2023/08/08 19:15:38;;;;;;;5.13;0.93;;;;;;;;;;6240053;28;20064;-86
2023/08/08 19:18:40;;;;;;;4.35;1.20;;;;;;;;;;6262583;28;20308;-87